createdAt,value
2018-03-27T00:00:25.137Z,19.50
2018-03-27T00:01:25.112Z,19.60
2018-03-27T00:02:25.036Z,19.50
2018-03-27T00:03:24.983Z,19.80
2018-03-27T00:04:24.934Z,19.20
2018-03-27T00:05:24.888Z,19.60
2018-03-27T00:06:24.856Z,20.20
2018-03-27T00:07:24.781Z,19.80
2018-03-27T00:08:24.728Z,20.30
2018-03-27T00:09:24.681Z,20.40
2018-03-27T00:10:24.628Z,20.70
2018-03-27T00:11:24.601Z,19.90
2018-03-27T00:12:24.529Z,20.00
2018-03-27T00:13:24.475Z,20.40
2018-03-27T00:14:24.425Z,20.20
2018-03-27T00:15:24.370Z,20.60
2018-03-27T00:16:24.350Z,20.60
2018-03-27T00:17:24.271Z,20.70
2018-03-27T00:18:24.223Z,21.10
2018-03-27T00:19:24.171Z,20.50
2018-03-27T00:20:24.136Z,20.00
2018-03-27T00:21:24.094Z,21.10
2018-03-27T00:22:24.017Z,21.10
2018-03-27T00:23:23.969Z,20.40
2018-03-27T00:24:23.926Z,20.80
2018-03-27T00:25:23.862Z,20.80
2018-03-27T00:26:23.837Z,21.30
2018-03-27T00:27:23.767Z,21.50
2018-03-27T00:28:23.714Z,20.80
2018-03-27T00:29:23.661Z,21.10
2018-03-27T00:30:23.612Z,21.20
2018-03-27T00:31:23.597Z,21.50
2018-03-27T00:32:23.509Z,21.00
2018-03-27T00:33:23.459Z,21.40
2018-03-27T00:34:23.408Z,21.60
2018-03-27T00:35:23.370Z,21.80
2018-03-27T00:36:23.312Z,21.90
2018-03-27T00:37:23.278Z,21.70
2018-03-27T00:38:23.205Z,21.20
2018-03-27T00:39:23.153Z,21.80
2018-03-27T00:40:23.103Z,21.20
2018-03-27T00:41:23.052Z,21.90
2018-03-27T00:42:23.027Z,22.00
2018-03-27T00:43:22.953Z,21.80
2018-03-27T00:44:22.901Z,22.00
2018-03-27T00:45:22.849Z,22.20
2018-03-27T00:46:22.802Z,22.50
2018-03-27T00:47:22.774Z,21.50
2018-03-27T00:48:22.692Z,21.70
2018-03-27T00:49:22.650Z,22.00
2018-03-27T00:50:22.598Z,21.30
2018-03-27T00:51:22.553Z,21.70
2018-03-27T00:52:22.517Z,22.30
2018-03-27T00:53:22.448Z,22.40
2018-03-27T00:54:22.395Z,22.90
2018-03-27T00:55:22.342Z,21.50
2018-03-27T00:56:22.289Z,23.00
2018-03-27T00:57:22.281Z,21.70
2018-03-27T00:58:22.192Z,22.10
2018-03-27T00:59:22.142Z,22.50
2018-03-27T01:00:22.090Z,21.10
2018-03-27T01:01:22.035Z,21.80
2018-03-27T01:02:21.992Z,22.70
2018-03-27T01:03:21.966Z,23.10
2018-03-27T01:04:21.883Z,22.30
2018-03-27T01:05:21.834Z,22.20
2018-03-27T01:06:21.789Z,22.40
2018-03-27T01:07:21.731Z,22.40
2018-03-27T01:08:21.731Z,21.60
2018-03-27T01:09:21.630Z,22.00
2018-03-27T01:10:21.585Z,21.90
2018-03-27T01:11:21.531Z,22.50
2018-03-27T01:12:21.481Z,21.30
2018-03-27T01:13:21.456Z,22.50
2018-03-27T01:14:21.383Z,22.10
2018-03-27T01:15:21.335Z,22.40
2018-03-27T01:16:21.285Z,22.90
2018-03-27T01:17:21.225Z,23.50
2018-03-27T01:18:21.199Z,23.70
2018-03-27T01:19:21.126Z,23.40
2018-03-27T01:20:21.076Z,23.00
2018-03-27T01:21:21.028Z,23.30
2018-03-27T01:22:20.972Z,23.20
2018-03-27T01:23:20.949Z,22.70
2018-03-27T01:24:20.871Z,22.50
2018-03-27T01:25:20.825Z,23.40
2018-03-27T01:26:20.771Z,23.80
2018-03-27T01:27:20.729Z,22.80
2018-03-27T01:28:20.695Z,23.20
2018-03-27T01:29:20.617Z,23.00
2018-03-27T01:30:20.569Z,22.60
2018-03-27T01:31:20.524Z,23.20
2018-03-27T01:32:20.468Z,22.70
2018-03-27T01:33:20.440Z,22.80
2018-03-27T01:34:20.364Z,22.40
2018-03-27T01:35:20.312Z,22.50
2018-03-27T01:36:20.266Z,22.50
2018-03-27T01:37:20.212Z,22.80
2018-03-27T01:38:20.184Z,22.10
2018-03-27T01:39:20.110Z,22.40
2018-03-27T01:40:20.060Z,22.70
2018-03-27T01:41:20.009Z,23.20
2018-03-27T01:42:19.958Z,22.70
2018-03-27T01:43:19.935Z,22.70
2018-03-27T01:44:19.855Z,24.10
2018-03-27T01:45:19.807Z,23.60
2018-03-27T01:46:19.755Z,23.70
2018-03-27T01:47:19.702Z,24.00
2018-03-27T01:48:19.678Z,23.80
2018-03-27T01:49:19.605Z,24.20
2018-03-27T01:50:19.551Z,24.40
2018-03-27T01:51:19.500Z,23.90
2018-03-27T01:52:19.450Z,24.00
2018-03-27T01:53:19.428Z,23.80
2018-03-27T01:54:19.346Z,24.70
2018-03-27T01:55:19.301Z,24.40
2018-03-27T01:56:19.247Z,24.50
2018-03-27T01:57:19.199Z,23.50
2018-03-27T01:58:19.169Z,23.40
2018-03-27T01:59:19.096Z,23.70
2018-03-27T02:00:19.043Z,23.10
2018-03-27T02:01:19.024Z,23.60
2018-03-27T02:02:18.947Z,24.40
2018-03-27T02:03:18.921Z,24.10
2018-03-27T02:04:18.840Z,24.90
2018-03-27T02:05:18.796Z,24.90
2018-03-27T02:06:18.741Z,24.60
2018-03-27T02:07:18.698Z,24.60
2018-03-27T02:08:18.661Z,24.90
2018-03-27T02:09:18.590Z,25.00
2018-03-27T02:10:18.542Z,24.70
2018-03-27T02:11:18.490Z,25.20
2018-03-27T02:12:18.441Z,25.00
2018-03-27T02:13:18.405Z,26.20
2018-03-27T02:14:18.331Z,25.50
2018-03-27T02:15:18.281Z,25.60
2018-03-27T02:16:18.294Z,26.40
2018-03-27T02:17:18.179Z,26.10
2018-03-27T02:18:18.154Z,25.60
2018-03-27T02:19:18.077Z,25.20
2018-03-27T02:20:18.030Z,26.10
2018-03-27T02:21:17.992Z,26.20
2018-03-27T02:22:17.929Z,26.00
2018-03-27T02:23:17.918Z,25.20
2018-03-27T02:24:17.833Z,26.10
2018-03-27T02:25:17.798Z,26.50
2018-03-27T02:26:17.720Z,26.10
2018-03-27T02:27:17.676Z,25.90
2018-03-27T02:28:17.654Z,26.10
2018-03-27T02:29:17.569Z,25.70
2018-03-27T02:30:17.524Z,24.90
2018-03-27T02:31:17.468Z,26.70
2018-03-27T02:32:17.422Z,26.20
2018-03-27T02:33:17.376Z,25.10
2018-03-27T02:34:17.336Z,25.60
2018-03-27T02:35:17.291Z,24.90
2018-03-27T02:36:17.213Z,25.70
2018-03-27T02:37:17.162Z,25.60
2018-03-27T02:38:17.110Z,26.50
2018-03-27T02:39:17.087Z,25.70
2018-03-27T02:40:17.012Z,26.00
2018-03-27T02:41:16.959Z,26.70
2018-03-27T02:42:16.908Z,25.60
2018-03-27T02:43:16.857Z,26.80
2018-03-27T02:44:16.831Z,24.90
2018-03-27T02:45:16.764Z,26.60
2018-03-27T02:46:16.706Z,25.70
2018-03-27T02:47:16.655Z,25.50
2018-03-27T02:48:16.615Z,26.50
2018-03-27T02:49:16.574Z,27.00
2018-03-27T02:50:16.505Z,27.00
2018-03-27T02:51:16.445Z,26.90
2018-03-27T02:52:16.398Z,26.80
2018-03-27T02:53:16.353Z,26.90
2018-03-27T02:54:16.334Z,26.60
2018-03-27T02:55:16.245Z,26.90
2018-03-27T02:56:16.188Z,26.70
2018-03-27T02:57:16.143Z,27.70
2018-03-27T02:58:16.089Z,25.80
2018-03-27T02:59:16.065Z,25.40
2018-03-27T03:00:15.989Z,25.70
2018-03-27T03:01:15.938Z,26.50
2018-03-27T03:02:15.904Z,26.50
2018-03-27T03:03:15.837Z,25.80
2018-03-27T03:04:15.808Z,25.70
2018-03-27T03:05:15.733Z,26.90
2018-03-27T03:06:15.682Z,27.00
2018-03-27T03:07:15.629Z,26.80
2018-03-27T03:08:15.578Z,26.30
2018-03-27T03:09:15.553Z,26.70
2018-03-27T03:10:15.469Z,25.60
2018-03-27T03:11:15.427Z,26.00
2018-03-27T03:12:15.381Z,26.00
2018-03-27T03:13:15.322Z,26.60
2018-03-27T03:14:15.294Z,26.80
2018-03-27T03:15:15.216Z,26.00
2018-03-27T03:16:15.171Z,26.10
2018-03-27T03:17:15.118Z,26.20
2018-03-27T03:18:15.068Z,25.90
2018-03-27T03:19:15.044Z,26.20
2018-03-27T03:20:14.962Z,27.00
2018-03-27T03:21:14.914Z,26.50
2018-03-27T03:22:14.857Z,26.90
2018-03-27T03:23:14.807Z,27.20
2018-03-27T03:24:14.778Z,26.80
2018-03-27T03:25:14.708Z,26.60
2018-03-27T03:26:14.655Z,26.00
2018-03-27T03:27:14.603Z,26.20
2018-03-27T03:28:14.577Z,24.70
2018-03-27T03:29:14.520Z,26.10
2018-03-27T03:30:14.448Z,26.50
2018-03-27T03:31:14.397Z,26.00
2018-03-27T03:32:14.345Z,24.60
2018-03-27T03:33:14.295Z,25.70
2018-03-27T03:34:14.266Z,25.30
2018-03-27T03:35:14.202Z,25.00
2018-03-27T03:36:14.136Z,24.90
2018-03-27T03:37:14.084Z,24.70
2018-03-27T03:38:14.059Z,25.70
2018-03-27T03:39:14.008Z,25.50
2018-03-27T03:40:13.944Z,25.70
2018-03-27T03:41:13.880Z,25.70
2018-03-27T03:42:13.830Z,26.10
2018-03-27T03:43:13.780Z,26.70
2018-03-27T03:44:13.751Z,27.30
2018-03-27T03:45:13.676Z,27.50
2018-03-27T03:46:13.626Z,26.60
2018-03-27T03:47:13.580Z,27.10
2018-03-27T03:48:13.528Z,27.60
2018-03-27T03:49:13.494Z,26.20
2018-03-27T03:50:13.417Z,26.80
2018-03-27T03:51:13.366Z,26.50
2018-03-27T03:52:13.314Z,27.20
2018-03-27T03:53:13.269Z,27.40
2018-03-27T03:54:13.249Z,26.90
2018-03-27T03:55:13.168Z,28.20
2018-03-27T03:56:13.111Z,27.00
2018-03-27T03:57:13.058Z,28.20
2018-03-27T03:58:13.002Z,28.40
2018-03-27T03:59:12.977Z,27.70
2018-03-27T04:00:12.903Z,28.00
2018-03-27T04:01:12.854Z,28.10
2018-03-27T04:02:12.804Z,27.90
2018-03-27T04:03:12.753Z,27.40
2018-03-27T04:04:12.717Z,27.40
2018-03-27T04:05:12.644Z,26.40
2018-03-27T04:06:12.592Z,26.30
2018-03-27T04:07:12.542Z,27.50
2018-03-27T04:08:12.495Z,27.90
2018-03-27T04:09:12.465Z,27.90
2018-03-27T04:10:12.389Z,28.00
2018-03-27T04:11:12.334Z,27.80
2018-03-27T04:12:12.284Z,28.00
2018-03-27T04:13:12.233Z,27.80
2018-03-27T04:14:12.181Z,28.00
2018-03-27T04:15:12.195Z,28.70
2018-03-27T04:16:12.078Z,28.80
2018-03-27T04:17:12.025Z,28.60
2018-03-27T04:18:11.972Z,28.30
2018-03-27T04:19:11.922Z,27.50
2018-03-27T04:20:11.895Z,27.30
2018-03-27T04:21:11.823Z,27.60
2018-03-27T04:22:11.764Z,27.50
2018-03-27T04:23:11.721Z,26.10
2018-03-27T04:24:11.667Z,26.90
2018-03-27T04:25:11.634Z,27.60
2018-03-27T04:26:11.572Z,27.10
2018-03-27T04:27:11.511Z,27.20
2018-03-27T04:28:11.457Z,28.90
2018-03-27T04:29:11.403Z,28.50
2018-03-27T04:30:11.376Z,27.40
2018-03-27T04:31:11.313Z,27.70
2018-03-27T04:32:11.251Z,26.90
2018-03-27T04:33:11.202Z,26.80
2018-03-27T04:34:11.145Z,27.30
2018-03-27T04:35:11.135Z,27.00
2018-03-27T04:36:11.044Z,27.00
2018-03-27T04:37:10.993Z,27.60
2018-03-27T04:38:10.938Z,27.00
2018-03-27T04:39:10.885Z,27.40
2018-03-27T04:40:10.859Z,27.70
2018-03-27T04:41:10.780Z,27.80
2018-03-27T04:42:10.734Z,27.50
2018-03-27T04:43:10.679Z,28.60
2018-03-27T04:44:10.629Z,27.60
2018-03-27T04:45:10.602Z,27.10
2018-03-27T04:46:10.542Z,26.90
2018-03-27T04:47:10.470Z,28.00
2018-03-27T04:48:10.420Z,27.60
2018-03-27T04:49:10.368Z,27.20
2018-03-27T04:50:10.342Z,28.30
2018-03-27T04:51:10.266Z,27.60
2018-03-27T04:52:10.212Z,26.70
2018-03-27T04:53:10.165Z,26.30
2018-03-27T04:54:10.118Z,26.50
2018-03-27T04:55:10.084Z,26.00
2018-03-27T04:56:10.002Z,26.70
2018-03-27T04:57:09.958Z,26.70
2018-03-27T04:58:09.898Z,27.40
2018-03-27T04:59:09.849Z,25.90
2018-03-27T05:00:09.818Z,25.80
2018-03-27T05:01:09.742Z,27.30
2018-03-27T05:02:09.688Z,26.80
2018-03-27T05:03:09.640Z,27.40
2018-03-27T05:04:09.589Z,27.60
2018-03-27T05:05:09.563Z,27.10
2018-03-27T05:06:09.482Z,27.30
2018-03-27T05:07:09.433Z,26.90
2018-03-27T05:08:09.379Z,26.50
2018-03-27T05:09:09.326Z,26.40
2018-03-27T05:10:09.299Z,27.00
2018-03-27T05:11:09.221Z,28.50
2018-03-27T05:12:09.171Z,27.70
2018-03-27T05:13:09.123Z,28.60
2018-03-27T05:14:09.072Z,28.40
2018-03-27T05:15:09.041Z,28.60
2018-03-27T05:16:08.964Z,28.20
2018-03-27T05:17:08.913Z,27.20
2018-03-27T05:18:08.857Z,26.90
2018-03-27T05:19:08.807Z,27.80
2018-03-27T05:20:08.781Z,27.40
2018-03-27T05:21:08.704Z,27.30
2018-03-27T05:22:08.655Z,28.60
2018-03-27T05:23:08.598Z,27.40
2018-03-27T05:24:08.549Z,27.70
2018-03-27T05:25:08.521Z,28.30
2018-03-27T05:26:08.444Z,28.10
2018-03-27T05:27:08.395Z,28.20
2018-03-27T05:28:08.343Z,28.50
2018-03-27T05:29:08.292Z,29.00
2018-03-27T05:30:08.261Z,29.10
2018-03-27T05:31:08.185Z,29.90
2018-03-27T05:32:08.139Z,30.00
2018-03-27T05:33:08.088Z,30.40
2018-03-27T05:34:08.036Z,30.20
2018-03-27T05:35:08.000Z,29.40
2018-03-27T05:36:07.929Z,29.90
2018-03-27T05:37:07.874Z,29.70
2018-03-27T05:38:07.825Z,30.30
2018-03-27T05:39:07.771Z,30.90
2018-03-27T05:40:07.745Z,31.60
2018-03-27T05:41:07.671Z,31.80
2018-03-27T05:42:07.614Z,31.70
2018-03-27T05:43:07.571Z,31.90
2018-03-27T05:44:07.520Z,30.30
2018-03-27T05:45:07.489Z,29.00
2018-03-27T05:46:07.410Z,29.50
2018-03-27T05:47:07.358Z,28.90
2018-03-27T05:48:07.307Z,28.80
2018-03-27T05:49:07.252Z,29.30
2018-03-27T05:50:07.228Z,28.20
2018-03-27T05:51:07.155Z,27.90
2018-03-27T05:52:07.099Z,28.00
2018-03-27T05:53:07.050Z,28.00
2018-03-27T05:54:07.000Z,28.90
2018-03-27T05:55:06.977Z,28.40
2018-03-27T05:56:06.924Z,28.50
2018-03-27T05:57:06.847Z,27.90
2018-03-27T05:58:06.790Z,28.00
2018-03-27T05:59:06.737Z,27.70
2018-03-27T06:00:06.713Z,27.60
2018-03-27T06:01:06.637Z,27.50
2018-03-27T06:02:06.587Z,26.70
2018-03-27T06:03:06.537Z,27.90
2018-03-27T06:04:06.489Z,27.70
2018-03-27T06:05:06.459Z,28.10
2018-03-27T06:06:06.384Z,26.80
2018-03-27T06:07:06.333Z,27.90
2018-03-27T06:08:06.287Z,27.60
2018-03-27T06:09:06.230Z,27.80
2018-03-27T06:10:06.206Z,26.90
2018-03-27T06:11:06.130Z,26.80
2018-03-27T06:12:06.074Z,27.20
2018-03-27T06:13:06.027Z,27.40
2018-03-27T06:14:05.974Z,26.80
2018-03-27T06:15:05.942Z,27.50
2018-03-27T06:16:05.870Z,27.40
2018-03-27T06:17:05.825Z,27.10
2018-03-27T06:18:05.770Z,26.80
2018-03-27T06:19:05.717Z,27.00
2018-03-27T06:20:05.693Z,27.00
2018-03-27T06:21:05.615Z,27.00
2018-03-27T06:22:05.565Z,26.90
2018-03-27T06:23:05.515Z,27.10
2018-03-27T06:24:05.468Z,26.90
2018-03-27T06:25:05.436Z,26.40
2018-03-27T06:26:05.364Z,27.10
2018-03-27T06:27:05.315Z,25.80
2018-03-27T06:28:05.264Z,26.10
2018-03-27T06:29:05.212Z,26.10
2018-03-27T06:30:05.183Z,25.60
2018-03-27T06:31:05.121Z,26.40
2018-03-27T06:32:05.061Z,26.70
2018-03-27T06:33:05.007Z,26.20
2018-03-27T06:34:04.959Z,25.90
2018-03-27T06:35:04.929Z,25.60
2018-03-27T06:36:04.858Z,26.30
2018-03-27T06:37:04.807Z,26.20
2018-03-27T06:38:04.758Z,25.60
2018-03-27T06:39:04.702Z,25.60
2018-03-27T06:40:04.680Z,25.90
2018-03-27T06:41:04.600Z,25.20
2018-03-27T06:42:04.603Z,25.90
2018-03-27T06:43:04.510Z,26.10
2018-03-27T06:44:04.454Z,26.60
2018-03-27T06:45:04.433Z,26.10
2018-03-27T06:46:04.351Z,26.90
2018-03-27T06:47:04.303Z,25.90
2018-03-27T06:48:04.252Z,25.80
2018-03-27T06:49:04.243Z,26.00
2018-03-27T06:50:04.178Z,26.50
2018-03-27T06:51:04.113Z,26.00
2018-03-27T06:52:04.051Z,25.50
2018-03-27T06:53:03.999Z,24.70
2018-03-27T06:54:03.949Z,25.20
2018-03-27T06:55:03.929Z,25.10
2018-03-27T06:56:03.853Z,24.60
2018-03-27T06:57:03.800Z,25.60
2018-03-27T06:58:03.748Z,26.00
2018-03-27T06:59:03.722Z,25.70
2018-03-27T07:00:03.686Z,25.60
2018-03-27T07:01:03.600Z,24.50
2018-03-27T07:02:03.552Z,25.10
2018-03-27T07:03:03.498Z,25.30
2018-03-27T07:04:03.446Z,25.10
2018-03-27T07:05:03.400Z,26.00
2018-03-27T07:06:03.376Z,25.90
2018-03-27T07:07:03.336Z,25.50
2018-03-27T07:08:03.270Z,25.30
2018-03-27T07:09:03.195Z,27.20
2018-03-27T07:10:03.148Z,26.80
2018-03-27T07:11:03.123Z,26.30
2018-03-27T07:12:03.048Z,26.40
2018-03-27T07:13:02.993Z,26.30
2018-03-27T07:14:02.942Z,26.20
2018-03-27T07:15:02.935Z,25.30
2018-03-27T07:16:02.893Z,26.20
2018-03-27T07:17:02.813Z,26.90
2018-03-27T07:18:02.746Z,25.60
2018-03-27T07:19:02.701Z,26.90
2018-03-27T07:20:02.671Z,25.40
2018-03-27T07:21:02.617Z,24.20
2018-03-27T07:22:02.545Z,25.90
2018-03-27T07:23:02.498Z,25.00
2018-03-27T07:24:02.448Z,24.20
2018-03-27T07:25:02.395Z,23.70
2018-03-27T07:26:02.370Z,23.90
2018-03-27T07:27:02.357Z,24.80
2018-03-27T07:28:02.252Z,23.90
2018-03-27T07:29:02.205Z,25.50
2018-03-27T07:30:02.150Z,25.10
2018-03-27T07:31:02.126Z,25.10
2018-03-27T07:32:02.052Z,24.40
2018-03-27T07:33:02.003Z,24.60
2018-03-27T07:34:01.955Z,24.20
2018-03-27T07:35:01.904Z,25.30
2018-03-27T07:36:01.878Z,24.50
2018-03-27T07:37:01.822Z,24.80
2018-03-27T07:38:01.754Z,23.60
2018-03-27T07:39:01.705Z,24.70
2018-03-27T07:40:01.665Z,24.50
2018-03-27T07:41:01.637Z,24.90
2018-03-27T07:42:01.564Z,24.90
2018-03-27T07:43:01.512Z,25.20
2018-03-27T07:44:01.465Z,23.80
2018-03-27T07:45:01.412Z,25.00
2018-03-27T07:46:01.392Z,24.60
2018-03-27T07:47:01.315Z,24.50
2018-03-27T07:48:01.268Z,24.70
2018-03-27T07:49:01.239Z,23.70
2018-03-27T07:50:01.191Z,23.70
2018-03-27T07:51:01.239Z,23.80
2018-03-27T07:52:01.118Z,24.50
2018-03-27T07:53:01.069Z,25.40
2018-03-27T07:54:01.028Z,25.30
2018-03-27T07:55:00.928Z,25.00
2018-03-27T07:56:00.904Z,25.60
2018-03-27T07:57:00.829Z,25.90
2018-03-27T07:58:00.780Z,25.30
2018-03-27T07:59:00.770Z,24.50
2018-03-27T08:00:00.682Z,24.90
2018-03-27T08:01:00.661Z,25.20
2018-03-27T08:02:00.580Z,25.30
2018-03-27T08:03:00.546Z,24.80
2018-03-27T08:04:00.490Z,26.30
2018-03-27T08:05:00.441Z,26.30
2018-03-27T08:06:00.413Z,26.30
2018-03-27T08:07:00.345Z,26.90
2018-03-27T08:08:00.298Z,26.20
2018-03-27T08:09:00.247Z,27.60
2018-03-27T08:10:00.281Z,26.00
2018-03-27T08:11:00.225Z,26.90
2018-03-27T08:12:00.176Z,27.40
2018-03-27T08:13:00.050Z,27.10
2018-03-27T08:14:00.009Z,26.20
2018-03-27T08:14:59.953Z,27.10
2018-03-27T08:15:59.927Z,26.20
2018-03-27T08:16:59.861Z,26.70
2018-03-27T08:17:59.819Z,27.60
2018-03-27T08:18:59.768Z,26.80
2018-03-27T08:19:59.713Z,25.40
2018-03-27T08:20:59.685Z,26.80
2018-03-27T08:21:59.614Z,27.30
2018-03-27T08:22:59.567Z,26.60
2018-03-27T08:23:59.620Z,26.40
2018-03-27T08:24:59.469Z,26.80
2018-03-27T08:25:59.447Z,26.60
2018-03-27T08:26:59.372Z,26.90
2018-03-27T08:27:59.323Z,27.00
2018-03-27T08:28:59.276Z,26.40
2018-03-27T08:29:59.227Z,27.90
2018-03-27T08:30:59.201Z,26.50
2018-03-27T08:31:59.128Z,27.40
2018-03-27T08:32:59.165Z,25.60
2018-03-27T08:33:59.031Z,26.70
2018-03-27T08:34:58.985Z,27.50
2018-03-27T08:35:58.960Z,27.60
2018-03-27T08:36:58.884Z,26.90
2018-03-27T08:37:58.842Z,27.50
2018-03-27T08:38:58.790Z,28.00
2018-03-27T08:39:58.746Z,27.70
2018-03-27T08:40:58.715Z,29.00
2018-03-27T08:41:58.647Z,29.20
2018-03-27T08:42:58.598Z,27.90
2018-03-27T08:43:58.550Z,27.90
2018-03-27T08:44:58.502Z,29.60
2018-03-27T08:45:58.479Z,29.60
2018-03-27T08:47:05.553Z,29.20
2018-03-27T08:47:58.359Z,30.50
2018-03-27T08:48:58.305Z,29.30
2018-03-27T08:49:58.262Z,29.50
2018-03-27T08:50:58.236Z,30.10
2018-03-27T08:51:58.193Z,31.00
2018-03-27T08:52:58.145Z,31.50
2018-03-27T08:53:58.079Z,31.90
2018-03-27T08:54:58.018Z,32.60
2018-03-27T08:55:58.124Z,33.30
2018-03-27T08:56:58.017Z,32.50
2018-03-27T08:57:57.993Z,33.00
2018-03-27T08:58:57.855Z,32.90
2018-03-27T08:59:57.843Z,33.60
2018-03-27T09:00:57.760Z,34.80
2018-03-27T09:01:57.696Z,35.40
2018-03-27T09:02:57.629Z,40.50
2018-03-27T09:03:57.624Z,39.70
2018-03-27T09:04:57.538Z,40.70
2018-03-27T09:05:57.507Z,42.60
2018-03-27T09:06:57.439Z,44.10
2018-03-27T09:07:57.387Z,43.80
2018-03-27T09:08:57.342Z,44.60
2018-03-27T09:09:57.305Z,44.40
2018-03-27T09:10:57.268Z,45.70
2018-03-27T09:11:57.200Z,45.30
2018-03-27T09:12:57.155Z,45.80
2018-03-27T09:13:57.103Z,48.80
2018-03-27T09:14:57.054Z,47.00
2018-03-27T09:15:57.028Z,48.70
2018-03-27T09:16:56.958Z,47.90
2018-03-27T09:17:56.908Z,48.80
2018-03-27T09:18:56.864Z,50.40
2018-03-27T09:19:56.816Z,51.20
2018-03-27T09:20:56.790Z,51.20
2018-03-27T09:21:56.717Z,51.00
2018-03-27T09:22:56.668Z,52.30
2018-03-27T09:23:56.625Z,50.20
2018-03-27T09:24:56.577Z,50.40
2018-03-27T09:25:56.556Z,50.20
2018-03-27T09:26:56.516Z,48.90
2018-03-27T09:27:56.435Z,48.50
2018-03-27T09:28:56.387Z,50.60
2018-03-27T09:29:56.339Z,50.80
2018-03-27T09:30:56.320Z,50.50
2018-03-27T09:31:56.245Z,50.90
2018-03-27T09:32:56.193Z,50.70
2018-03-27T09:33:56.161Z,51.10
2018-03-27T09:34:56.111Z,51.50
2018-03-27T09:35:56.096Z,50.10
2018-03-27T09:36:56.008Z,52.00
2018-03-27T09:37:55.958Z,50.90
2018-03-27T09:38:55.913Z,51.60
2018-03-27T09:39:55.866Z,52.50
2018-03-27T09:40:55.819Z,50.80
2018-03-27T09:41:55.808Z,53.10
2018-03-27T09:42:55.720Z,51.30
2018-03-27T09:43:55.927Z,50.30
2018-03-27T09:44:55.626Z,52.90
2018-03-27T09:45:55.576Z,52.10
2018-03-27T09:46:55.554Z,53.60
2018-03-27T09:47:55.486Z,53.10
2018-03-27T09:48:55.436Z,53.50
2018-03-27T09:49:55.387Z,53.50
2018-03-27T09:50:55.374Z,53.60
2018-03-27T09:51:55.316Z,53.80
2018-03-27T09:52:55.243Z,52.70
2018-03-27T09:53:55.204Z,53.20
2018-03-27T09:54:55.150Z,53.80
2018-03-27T09:55:55.110Z,54.10
2018-03-27T09:56:55.079Z,53.20
2018-03-27T09:57:55.006Z,53.30
2018-03-27T09:58:54.960Z,52.40
2018-03-27T09:59:54.912Z,51.60
2018-03-27T10:00:54.864Z,52.30
2018-03-27T10:01:54.840Z,52.60
2018-03-27T10:02:54.770Z,51.30
2018-03-27T10:03:54.725Z,51.70
2018-03-27T10:04:54.676Z,52.10
2018-03-27T10:05:54.646Z,52.60
2018-03-27T10:06:54.616Z,51.40
2018-03-27T10:07:54.535Z,51.60
2018-03-27T10:08:54.544Z,51.60
2018-03-27T10:09:54.446Z,51.10
2018-03-27T10:10:54.391Z,50.00
2018-03-27T10:11:54.376Z,51.10
2018-03-27T10:12:54.310Z,53.50
2018-03-27T10:13:54.252Z,51.60
2018-03-27T10:14:54.199Z,52.70
2018-03-27T10:15:54.222Z,52.90
2018-03-27T10:16:54.136Z,52.30
2018-03-27T10:17:54.686Z,51.50
2018-03-27T10:18:54.017Z,51.50
2018-03-27T10:20:01.779Z,51.90
2018-03-27T10:20:53.924Z,51.40
2018-03-27T10:21:53.899Z,50.90
2018-03-27T10:22:53.825Z,52.70
2018-03-27T10:23:53.782Z,52.60
2018-03-27T10:24:53.731Z,52.00
2018-03-27T10:25:53.688Z,53.60
2018-03-27T10:26:53.672Z,52.60
2018-03-27T10:27:53.590Z,50.50
2018-03-27T10:28:53.540Z,53.50
2018-03-27T10:29:53.495Z,53.00
2018-03-27T10:30:53.451Z,53.30
2018-03-27T10:31:53.424Z,54.60
2018-03-27T10:32:53.355Z,53.10
2018-03-27T10:33:53.307Z,55.20
2018-03-27T10:34:53.259Z,53.80
2018-03-27T10:35:53.211Z,53.80
2018-03-27T10:36:53.186Z,52.90
2018-03-27T10:37:53.117Z,54.60
2018-03-27T10:38:53.074Z,54.30
2018-03-27T10:39:53.027Z,55.00
2018-03-27T10:40:52.981Z,57.10
2018-03-27T10:41:52.954Z,57.40
2018-03-27T10:42:52.883Z,56.60
2018-03-27T10:43:52.836Z,55.80
2018-03-27T10:44:52.791Z,56.50
2018-03-27T10:45:52.744Z,57.30
2018-03-27T10:46:52.720Z,56.90
2018-03-27T10:47:52.649Z,57.10
2018-03-27T10:48:52.600Z,56.70
2018-03-27T10:49:52.572Z,56.90
2018-03-27T10:50:52.527Z,55.50
2018-03-27T10:51:52.480Z,56.70
2018-03-27T10:52:52.412Z,57.20
2018-03-27T10:53:52.365Z,57.10
2018-03-27T10:54:52.316Z,55.80
2018-03-27T10:55:52.273Z,55.70
2018-03-27T10:56:52.248Z,56.40
2018-03-27T10:57:52.176Z,56.40
2018-03-27T10:58:52.131Z,55.80
2018-03-27T10:59:52.087Z,54.90
2018-03-27T11:00:52.036Z,53.10
2018-03-27T11:01:52.013Z,53.70
2018-03-27T11:02:51.945Z,54.20
2018-03-27T11:03:51.900Z,54.50
2018-03-27T11:04:51.850Z,53.10
2018-03-27T11:05:51.807Z,52.50
2018-03-27T11:06:51.779Z,52.80
2018-03-27T11:07:51.709Z,53.00
2018-03-27T11:08:51.675Z,51.80
2018-03-27T11:09:51.619Z,52.80
2018-03-27T11:10:51.571Z,55.00
2018-03-27T11:11:51.545Z,53.20
2018-03-27T11:12:51.475Z,52.40
2018-03-27T11:13:51.429Z,50.30
2018-03-27T11:14:51.382Z,51.40
2018-03-27T11:15:51.336Z,52.00
2018-03-27T11:16:51.320Z,50.70
2018-03-27T11:17:51.244Z,51.50
2018-03-27T11:18:51.196Z,52.00
2018-03-27T11:19:58.179Z,50.70
2018-03-27T11:20:51.106Z,49.90
2018-03-27T11:21:51.085Z,49.90
2018-03-27T11:22:51.010Z,50.10
2018-03-27T11:23:50.966Z,49.60
2018-03-27T11:24:50.919Z,49.50
2018-03-27T11:25:50.874Z,47.20
2018-03-27T11:26:50.850Z,46.90
2018-03-27T11:27:50.787Z,45.80
2018-03-27T11:28:50.734Z,45.30
2018-03-27T11:29:50.689Z,44.00
2018-03-27T11:30:57.701Z,40.10
2018-03-27T11:31:50.613Z,41.90
2018-03-27T11:32:50.558Z,42.90
2018-03-27T11:33:50.499Z,41.10
2018-03-27T11:34:50.453Z,39.10
2018-03-27T11:35:50.407Z,39.80
2018-03-27T11:36:50.383Z,39.50
2018-03-27T11:37:50.318Z,38.00
2018-03-27T11:38:50.268Z,36.30
2018-03-27T11:39:50.223Z,23.40
2018-03-27T11:40:50.177Z,24.10
2018-03-27T11:41:50.151Z,23.30
2018-03-27T11:42:50.081Z,23.50
2018-03-27T11:43:50.036Z,24.80
2018-03-27T11:44:49.991Z,30.80
2018-03-27T11:45:49.942Z,31.60
2018-03-27T11:46:49.922Z,33.50
2018-03-27T11:47:49.853Z,32.10
2018-03-27T11:48:49.843Z,23.00
2018-03-27T11:49:49.752Z,24.20
2018-03-27T11:50:49.710Z,22.30
2018-03-27T11:51:49.688Z,24.50
2018-03-27T11:52:49.624Z,25.20
2018-03-27T11:53:49.570Z,29.50
2018-03-27T11:54:49.530Z,28.10
2018-03-27T11:55:49.481Z,28.20
2018-03-27T11:56:49.457Z,28.50
2018-03-27T11:57:49.386Z,28.50
2018-03-27T11:58:49.352Z,31.30
2018-03-27T11:59:49.295Z,28.30
2018-03-27T12:00:49.253Z,26.50
2018-03-27T12:01:49.227Z,26.40
2018-03-27T12:02:49.158Z,25.50
2018-03-27T12:03:49.112Z,25.70
2018-03-27T12:04:49.075Z,25.30
2018-03-27T12:05:49.017Z,24.50
2018-03-27T12:06:49.005Z,23.70
2018-03-27T12:07:48.957Z,24.00
2018-03-27T12:08:48.882Z,24.40
2018-03-27T12:09:48.837Z,25.50
2018-03-27T12:10:48.786Z,26.20
2018-03-27T12:11:48.770Z,24.50
2018-03-27T12:12:48.694Z,24.50
2018-03-27T12:13:48.657Z,24.60
2018-03-27T12:14:48.601Z,24.60
2018-03-27T12:15:48.559Z,24.60
2018-03-27T12:16:48.545Z,24.60
2018-03-27T12:17:48.465Z,24.90
2018-03-27T12:18:48.416Z,24.80
2018-03-27T12:19:48.372Z,24.90
2018-03-27T12:20:48.323Z,26.60
2018-03-27T12:21:48.279Z,26.30
2018-03-27T12:22:48.257Z,21.40
2018-03-27T12:23:48.186Z,21.10
2018-03-27T12:24:48.146Z,19.30
2018-03-27T12:25:48.099Z,18.60
2018-03-27T12:26:48.053Z,18.60
2018-03-27T12:27:48.031Z,18.90
2018-03-27T12:28:47.998Z,19.70
2018-03-27T12:29:47.915Z,19.70
2018-03-27T12:30:47.869Z,19.80
2018-03-27T12:31:47.819Z,19.80
2018-03-27T12:32:47.804Z,18.30
2018-03-27T12:33:47.730Z,17.80
2018-03-27T12:34:47.680Z,17.60
2018-03-27T12:35:47.636Z,19.10
2018-03-27T12:36:47.596Z,18.20
2018-03-27T12:37:47.587Z,18.40
2018-03-27T12:38:47.501Z,18.20
2018-03-27T12:39:47.453Z,19.60
2018-03-27T12:40:47.407Z,20.80
2018-03-27T12:41:47.360Z,21.10
2018-03-27T12:42:47.340Z,22.00
2018-03-27T12:43:47.269Z,22.20
2018-03-27T12:44:47.228Z,22.10
2018-03-27T12:45:47.189Z,19.70
2018-03-27T12:46:47.133Z,19.80
2018-03-27T12:47:47.116Z,19.30
2018-03-27T12:48:47.045Z,19.10
2018-03-27T12:49:47.003Z,19.40
2018-03-27T12:50:46.950Z,19.30
2018-03-27T12:51:46.903Z,19.60